Time;durP1;ratioP1;P1;durP2;ratioP2;P2;SDS_P1;SDS_P2;PMS_P1;PMS_P2;Temp;Humidity;BMP_temperature;BMP_pressure;BME280_temperature;BME280_humidity;BME280_pressure;Samples;Min_cycle;Max_cycle;Signal;HPM_P1;HPM_P2
2023/10/20 00:00:15;;;;;;;1.90;1.60;;;14.60;75.10;;;;;;5068100;28;20469;-91
2023/10/20 00:02:43;;;;;;;1.70;1.43;;;14.60;75.50;;;;;;5070073;28;20446;-87
2023/10/20 00:05:13;;;;;;;2.03;1.20;;;14.60;75.00;;;;;;5071414;28;20559;-91
2023/10/20 00:07:43;;;;;;;2.47;1.70;;;14.60;74.70;;;;;;5068429;28;20457;-88
2023/10/20 00:10:11;;;;;;;1.73;1.20;;;14.60;74.70;;;;;;5062753;28;20487;-90
2023/10/20 00:12:40;;;;;;;2.00;1.63;;;14.60;74.40;;;;;;5075394;28;20438;-90
2023/10/20 00:15:13;;;;;;;1.93;1.73;;;14.60;74.10;;;;;;5063608;28;20486;-89
2023/10/20 00:17:42;;;;;;;2.10;1.90;;;14.60;74.30;;;;;;5061902;28;20432;-90
2023/10/20 00:20:11;;;;;;;1.60;1.50;;;14.70;74.40;;;;;;5078578;28;20465;-89
2023/10/20 00:22:41;;;;;;;2.97;2.10;;;14.60;74.20;;;;;;5063070;28;20456;-88
2023/10/20 00:25:12;;;;;;;1.80;1.40;;;14.60;74.60;;;;;;5063518;28;20530;-88
2023/10/20 00:27:41;;;;;;;1.93;1.77;;;14.70;74.70;;;;;;5066707;28;20444;-88
2023/10/20 00:30:11;;;;;;;1.90;1.37;;;14.60;74.20;;;;;;5059348;28;20455;-85
2023/10/20 00:32:40;;;;;;;1.67;1.57;;;14.60;73.90;;;;;;5069517;28;20447;-90
2023/10/20 00:35:13;;;;;;;1.93;1.50;;;14.60;73.90;;;;;;5066075;28;20877;-89
2023/10/20 00:37:42;;;;;;;1.33;1.23;;;14.60;73.70;;;;;;5064035;28;20442;-91
2023/10/20 00:40:13;;;;;;;2.10;1.40;;;14.60;73.80;;;;;;5058222;28;20480;-86
2023/10/20 00:42:41;;;;;;;1.77;1.63;;;14.60;73.80;;;;;;5059706;28;20437;-88
2023/10/20 00:45:10;;;;;;;1.97;1.40;;;14.60;73.90;;;;;;5069000;28;20470;-88
2023/10/20 00:47:40;;;;;;;2.17;1.53;;;14.60;74.00;;;;;;5070045;28;20955;-88
2023/10/20 00:50:11;;;;;;;1.70;1.60;;;14.60;73.50;;;;;;5066170;28;20547;-88
2023/10/20 00:52:42;;;;;;;2.00;1.70;;;14.60;73.80;;;;;;5062545;28;20454;-91
2023/10/20 00:55:14;;;;;;;1.50;1.40;;;14.60;73.50;;;;;;5063084;28;20458;-90
2023/10/20 00:57:44;;;;;;;1.53;1.27;;;14.60;73.40;;;;;;5073581;28;20434;-89
2023/10/20 01:00:13;;;;;;;2.13;1.53;;;14.70;73.70;;;;;;5086705;28;20479;-90
2023/10/20 01:02:42;;;;;;;1.70;1.37;;;14.60;73.50;;;;;;5077369;28;20531;-87
2023/10/20 01:05:14;;;;;;;1.70;1.30;;;14.60;73.40;;;;;;5065556;28;20890;-87
2023/10/20 01:07:43;;;;;;;2.27;1.50;;;14.60;73.60;;;;;;5073823;28;20476;-88
2023/10/20 01:10:13;;;;;;;1.77;1.60;;;14.70;73.60;;;;;;5073054;28;20522;-88
2023/10/20 01:12:41;;;;;;;1.80;1.70;;;14.60;73.60;;;;;;5074516;28;20960;-87
2023/10/20 01:15:11;;;;;;;2.10;1.43;;;14.60;73.70;;;;;;5071326;28;20484;-86
2023/10/20 01:17:40;;;;;;;5.07;2.00;;;14.70;74.00;;;;;;5074065;28;20482;-86
2023/10/20 01:20:09;;;;;;;1.70;1.53;;;14.70;74.10;;;;;;5060978;28;20776;-88
2023/10/20 01:22:37;;;;;;;2.13;1.20;;;14.70;75.70;;;;;;5069924;28;20947;-88
2023/10/20 01:25:07;;;;;;;2.23;1.80;;;14.70;74.20;;;;;;5065092;28;20996;-88
2023/10/20 01:27:36;;;;;;;2.33;1.63;;;14.70;74.70;;;;;;5066886;28;20464;-87
2023/10/20 01:30:05;;;;;;;2.30;1.87;;;14.70;74.70;;;;;;5074033;28;20954;-86
2023/10/20 01:32:35;;;;;;;2.50;1.93;;;14.60;74.90;;;;;;5066496;28;20470;-85
2023/10/20 01:35:04;;;;;;;1.97;1.50;;;14.70;76.30;;;;;;5079704;28;20475;-89
2023/10/20 01:37:32;;;;;;;1.97;1.57;;;14.70;75.70;;;;;;5091417;28;20441;-87
2023/10/20 01:40:01;;;;;;;2.10;1.80;;;14.60;75.90;;;;;;5065575;28;21008;-86
2023/10/20 01:42:30;;;;;;;2.23;2.00;;;14.70;76.00;;;;;;5047181;28;20493;-86
2023/10/20 01:44:58;;;;;;;1.87;1.50;;;14.70;76.60;;;;;;5063581;28;20474;-88
2023/10/20 01:47:27;;;;;;;2.30;2.10;;;14.60;76.30;;;;;;5075636;28;20454;-84
2023/10/20 01:49:55;;;;;;;2.13;1.93;;;14.70;76.30;;;;;;5058309;28;20843;-88
2023/10/20 01:52:23;;;;;;;2.33;1.60;;;14.60;75.30;;;;;;5074570;28;20832;-89
2023/10/20 01:54:52;;;;;;;2.30;1.93;;;14.70;75.70;;;;;;5068607;28;20519;-85
2023/10/20 01:57:20;;;;;;;1.70;1.47;;;14.70;76.40;;;;;;5068710;28;20448;-85
2023/10/20 01:59:50;;;;;;;2.17;1.80;;;14.70;75.70;;;;;;5052790;28;20473;-84
2023/10/20 02:02:18;;;;;;;2.30;2.10;;;14.60;75.20;;;;;;5065565;28;20949;-86
2023/10/20 02:04:47;;;;;;;2.70;2.40;;;14.70;75.90;;;;;;5072150;28;20471;-86
2023/10/20 02:07:16;;;;;;;2.17;1.93;;;14.70;75.90;;;;;;5071028;28;20446;-88
2023/10/20 02:09:44;;;;;;;1.60;1.43;;;14.70;75.70;;;;;;5075910;28;20479;-91
2023/10/20 02:12:13;;;;;;;1.90;1.30;;;14.70;75.20;;;;;;5080018;28;20523;-90
2023/10/20 02:14:42;;;;;;;2.30;2.10;;;14.70;75.80;;;;;;5067228;28;20460;-90
2023/10/20 02:17:13;;;;;;;2.33;1.70;;;14.70;75.70;;;;;;5078319;28;20435;-90
2023/10/20 02:19:41;;;;;;;1.60;1.40;;;14.70;75.50;;;;;;5083105;28;20468;-90
2023/10/20 02:22:09;;;;;;;3.60;1.80;;;14.70;75.50;;;;;;5067505;28;20444;-90
2023/10/20 02:24:39;;;;;;;1.70;1.50;;;14.70;75.70;;;;;;5062408;28;20473;-89
2023/10/20 02:27:09;;;;;;;2.40;1.60;;;14.70;75.20;;;;;;5073698;28;20430;-87
2023/10/20 02:29:37;;;;;;;1.73;1.57;;;14.60;75.20;;;;;;5077159;28;20473;-90
2023/10/20 02:32:05;;;;;;;2.13;1.60;;;14.70;75.30;;;;;;5092863;28;20443;-86
2023/10/20 02:34:35;;;;;;;1.60;1.27;;;14.70;75.20;;;;;;5059968;28;20527;-87
2023/10/20 02:37:04;;;;;;;1.97;1.77;;;14.70;76.60;;;;;;5046238;28;20790;-87
2023/10/20 02:39:33;;;;;;;1.97;1.77;;;14.70;77.00;;;;;;5060778;28;20465;-90
2023/10/20 02:42:01;;;;;;;3.33;2.17;;;14.70;75.90;;;;;;5072115;28;20511;-89
2023/10/20 02:44:31;;;;;;;2.00;1.77;;;14.70;76.60;;;;;;5064750;28;20503;-87
2023/10/20 02:46:59;;;;;;;1.80;1.50;;;14.70;76.40;;;;;;5082164;28;20614;-84
2023/10/20 02:49:27;;;;;;;2.10;1.60;;;14.70;76.20;;;;;;5066455;28;20479;-88
2023/10/20 02:51:57;;;;;;;1.90;1.50;;;14.60;75.50;;;;;;5060237;28;20443;-92
2023/10/20 02:54:25;;;;;;;2.43;1.83;;;14.70;76.00;;;;;;5085410;28;20829;-87
2023/10/20 02:56:56;;;;;;;2.40;2.00;;;14.70;76.40;;;;;;5075182;28;20456;-87
2023/10/20 02:59:25;;;;;;;1.43;1.20;;;14.70;76.50;;;;;;5083315;28;21049;-91
2023/10/20 03:01:54;;;;;;;2.40;1.47;;;14.70;77.10;;;;;;5065522;28;20452;-87
2023/10/20 03:04:22;;;;;;;2.47;1.50;;;14.70;76.30;;;;;;5067511;28;20618;-89
2023/10/20 03:06:50;;;;;;;1.80;1.60;;;14.70;77.00;;;;;;5071462;28;20442;-88
2023/10/20 03:09:19;;;;;;;1.53;1.40;;;14.70;76.20;;;;;;5074825;28;20472;-86
2023/10/20 03:11:47;;;;;;;1.60;1.43;;;14.70;76.20;;;;;;5065234;28;20475;-89
2023/10/20 03:14:17;;;;;;;1.60;1.40;;;14.70;76.40;;;;;;5070368;28;20507;-87
2023/10/20 03:16:45;;;;;;;1.80;1.70;;;14.70;76.80;;;;;;5062062;28;20451;-88
2023/10/20 03:19:14;;;;;;;2.80;1.87;;;14.70;76.70;;;;;;5068313;28;20556;-88
2023/10/20 03:21:42;;;;;;;1.97;1.33;;;14.70;76.70;;;;;;5058906;28;20810;-88
2023/10/20 03:24:10;;;;;;;2.13;1.60;;;14.70;76.30;;;;;;5061514;28;20605;-88
2023/10/20 03:26:41;;;;;;;1.93;1.50;;;14.70;76.70;;;;;;5060474;28;20419;-87
2023/10/20 03:29:09;;;;;;;2.10;1.60;;;14.70;77.60;;;;;;5065560;28;20470;-88
2023/10/20 03:31:37;;;;;;;2.03;1.40;;;14.70;76.60;;;;;;5066902;28;20485;-86
2023/10/20 03:34:06;;;;;;;2.00;1.67;;;14.70;77.00;;;;;;5056617;28;20472;-89
2023/10/20 03:36:34;;;;;;;1.73;1.43;;;14.70;77.00;;;;;;5064825;28;20431;-88
2023/10/20 03:39:14;;;;;;;1.50;1.40;;;14.70;77.60;;;;;;5065886;28;20478;-88
2023/10/20 03:41:43;;;;;;;1.70;1.50;;;14.70;76.70;;;;;;5069140;28;20457;-90
2023/10/20 03:44:12;;;;;;;2.33;1.90;;;14.70;77.20;;;;;;5063118;28;20460;-89
2023/10/20 03:46:48;;;;;;;2.13;1.90;;;14.70;76.80;;;;;;5066113;28;20443;-85
2023/10/20 03:49:16;;;;;;;2.13;1.93;;;14.70;76.90;;;;;;5058428;28;20460;-87
2023/10/20 03:51:49;;;;;;;1.67;1.50;;;14.70;76.80;;;;;;5068225;28;20460;-87
2023/10/20 03:54:17;;;;;;;2.87;1.30;;;14.70;76.90;;;;;;5058437;28;20466;-89
2023/10/20 03:56:46;;;;;;;2.50;1.67;;;14.70;76.70;;;;;;5074328;28;20431;-88
2023/10/20 03:59:16;;;;;;;4.33;1.70;;;14.70;77.30;;;;;;5067354;28;20780;-88
2023/10/20 04:01:44;;;;;;;2.20;1.63;;;14.70;77.00;;;;;;5082305;28;20425;-86
2023/10/20 04:04:12;;;;;;;2.17;1.70;;;14.70;76.50;;;;;;5066307;28;20993;-86
2023/10/20 04:06:41;;;;;;;1.33;1.13;;;14.70;77.60;;;;;;5064189;28;20427;-86
2023/10/20 04:09:09;;;;;;;2.47;1.60;;;14.70;76.60;;;;;;5064164;28;20536;-87
2023/10/20 04:11:38;;;;;;;2.60;2.40;;;14.70;76.50;;;;;;5050004;28;20443;-88
2023/10/20 04:14:08;;;;;;;3.37;1.67;;;14.70;77.60;;;;;;5077894;28;20516;-84
2023/10/20 04:16:39;;;;;;;1.60;1.50;;;14.70;76.50;;;;;;5069065;28;20501;-88
2023/10/20 04:19:09;;;;;;;2.00;1.80;;;14.70;76.60;;;;;;5069411;28;20826;-87
2023/10/20 04:21:38;;;;;;;1.47;1.33;;;14.70;77.10;;;;;;5064010;28;20472;-86
2023/10/20 04:24:09;;;;;;;2.50;1.50;;;14.70;76.30;;;;;;5070742;28;20476;-85
2023/10/20 04:26:38;;;;;;;2.00;1.80;;;14.70;77.00;;;;;;5060625;28;20426;-88
2023/10/20 04:29:33;;;;;;;2.03;1.60;;;14.70;76.50;;;;;;5080162;28;20481;-87
2023/10/20 04:52:05;;;;;;;1.73;1.50;;;14.70;76.50;;;;;;5019314;28;20446;-85
2023/10/20 04:54:45;;;;;;;2.83;1.83;;;14.70;77.60;;;;;;5029325;28;20473;-89
2023/10/20 04:57:35;;;;;;;1.70;1.60;;;14.70;77.70;;;;;;5075967;28;20445;-85
2023/10/20 05:02:58;;;;;;;1.77;1.67;;;14.70;78.00;;;;;;5063611;28;20464;-89
2023/10/20 05:05:33;;;;;;;1.90;1.53;;;14.60;77.00;;;;;;5064154;28;20477;-91
2023/10/20 05:08:05;;;;;;;1.80;1.43;;;14.70;78.10;;;;;;5059227;28;20443;-89
2023/10/20 05:10:33;;;;;;;1.73;1.60;;;14.70;77.60;;;;;;5071156;28;20468;-90
2023/10/20 05:13:01;;;;;;;1.60;1.33;;;14.70;78.00;;;;;;5090817;28;20922;-88
2023/10/20 05:15:32;;;;;;;1.60;1.50;;;14.70;77.50;;;;;;5077664;28;20504;-92
2023/10/20 05:18:02;;;;;;;1.97;1.63;;;14.70;77.30;;;;;;5072317;28;20410;-91
2023/10/20 05:20:30;;;;;;;2.13;1.60;;;14.70;77.80;;;;;;5081386;28;20462;-90
2023/10/20 05:23:00;;;;;;;2.40;1.60;;;14.70;78.00;;;;;;5075689;28;20432;-87
2023/10/20 05:25:28;;;;;;;1.90;1.47;;;14.70;77.10;;;;;;5068025;28;20472;-85
2023/10/20 05:27:56;;;;;;;2.20;1.60;;;14.70;77.80;;;;;;5063545;28;20465;-88
2023/10/20 05:30:24;;;;;;;1.70;1.30;;;14.70;77.40;;;;;;5060178;28;20469;-87
2023/10/20 05:32:53;;;;;;;2.10;1.83;;;14.70;77.30;;;;;;5069408;28;20458;-86
2023/10/20 05:35:22;;;;;;;3.47;2.00;;;14.70;77.60;;;;;;5056781;28;20471;-87
2023/10/20 05:37:51;;;;;;;3.80;2.73;;;14.70;77.70;;;;;;5072265;28;20865;-88
2023/10/20 05:40:19;;;;;;;2.10;1.73;;;14.70;77.60;;;;;;5062800;28;20470;-84
2023/10/20 05:42:47;;;;;;;2.63;1.60;;;14.70;78.90;;;;;;5074697;28;20433;-87
2023/10/20 05:45:20;;;;;;;2.17;1.47;;;14.70;78.00;;;;;;5054766;28;20523;-89
2023/10/20 05:47:50;;;;;;;2.50;1.70;;;14.70;78.00;;;;;;5076197;28;20869;-90
2023/10/20 05:50:18;;;;;;;2.20;1.90;;;14.70;77.80;;;;;;5070684;28;20558;-91
2023/10/20 05:52:48;;;;;;;2.70;1.60;;;14.70;77.90;;;;;;5064942;28;20528;-88
2023/10/20 05:55:16;;;;;;;2.33;1.93;;;14.70;78.50;;;;;;5070833;28;20477;-91
2023/10/20 05:57:45;;;;;;;2.33;1.83;;;14.70;77.70;;;;;;5071419;28;20530;-86
2023/10/20 06:00:15;;;;;;;4.60;1.80;;;14.70;78.50;;;;;;5052842;28;20466;-89
2023/10/20 06:02:46;;;;;;;2.60;1.83;;;14.70;78.40;;;;;;5057987;28;20421;-87
2023/10/20 06:05:14;;;;;;;1.70;1.53;;;14.70;78.00;;;;;;5059973;28;20480;-88
2023/10/20 06:07:44;;;;;;;2.10;1.90;;;14.70;77.40;;;;;;5079450;28;20431;-86
2023/10/20 06:10:13;;;;;;;2.10;1.77;;;14.70;77.60;;;;;;5079085;28;20471;-84
2023/10/20 06:12:42;;;;;;;2.07;1.50;;;14.70;78.00;;;;;;5060496;28;20438;-87
2023/10/20 06:15:11;;;;;;;1.87;1.67;;;14.70;77.80;;;;;;5076400;28;20475;-88
2023/10/20 06:17:39;;;;;;;1.97;1.70;;;14.70;78.10;;;;;;5091508;28;20415;-87
2023/10/20 06:20:09;;;;;;;2.10;1.30;;;14.70;77.60;;;;;;5064447;28;20470;-86
2023/10/20 06:22:37;;;;;;;2.63;1.50;;;14.70;78.20;;;;;;5064218;28;20413;-89
2023/10/20 06:25:12;;;;;;;2.27;1.40;;;14.70;78.00;;;;;;5070552;28;20950;-87
2023/10/20 06:27:42;;;;;;;2.77;1.70;;;14.70;77.90;;;;;;5071277;28;20416;-88
2023/10/20 06:30:22;;;;;;;1.67;1.57;;;14.70;77.90;;;;;;5070188;28;20514;-86
2023/10/20 06:33:12;;;;;;;2.30;1.53;;;14.70;76.80;;;;;;5070787;28;20935;-88
2023/10/20 06:35:50;;;;;;;1.83;1.40;;;14.70;76.80;;;;;;5070602;28;20456;-91
2023/10/20 06:38:25;;;;;;;2.20;1.40;;;14.70;76.80;;;;;;5070612;28;20451;-90
2023/10/20 06:40:53;;;;;;;1.90;1.50;;;14.70;76.90;;;;;;5071113;28;20431;-88
2023/10/20 06:43:23;;;;;;;1.70;1.40;;;14.70;77.60;;;;;;5070524;28;20474;-91
2023/10/20 06:45:59;;;;;;;1.93;1.50;;;14.70;77.40;;;;;;5070893;28;20457;-89
2023/10/20 06:48:27;;;;;;;1.50;1.10;;;14.70;77.20;;;;;;5070683;28;20481;-86
2023/10/20 06:50:57;;;;;;;1.70;1.33;;;14.70;77.00;;;;;;5072009;28;20455;-92
2023/10/20 06:53:26;;;;;;;2.20;1.07;;;14.70;77.00;;;;;;5072097;28;20471;-87
2023/10/20 06:55:55;;;;;;;2.07;1.43;;;14.70;77.00;;;;;;5055215;28;20453;-88
2023/10/20 06:58:44;;;;;;;1.37;1.03;;;14.70;76.80;;;;;;5071155;28;21077;-89
2023/10/20 07:01:13;;;;;;;2.70;1.40;;;14.70;76.90;;;;;;5071945;28;20437;-87
2023/10/20 07:03:41;;;;;;;2.17;1.20;;;14.70;76.30;;;;;;5070701;28;20510;-86
2023/10/20 07:06:11;;;;;;;1.93;1.30;;;14.70;76.70;;;;;;5071692;28;20453;-84
2023/10/20 07:08:40;;;;;;;1.73;1.53;;;14.70;76.70;;;;;;5070420;28;20468;-86
2023/10/20 07:11:08;;;;;;;3.90;1.03;;;14.70;76.20;;;;;;5071293;28;20461;-91
2023/10/20 07:13:37;;;;;;;1.93;1.30;;;14.70;76.50;;;;;;5070514;28;20464;-90
2023/10/20 07:16:07;;;;;;;3.40;1.20;;;14.70;76.30;;;;;;5054403;28;20514;-86
2023/10/20 07:18:36;;;;;;;1.67;1.17;;;14.70;76.20;;;;;;5070354;28;20464;-90
2023/10/20 07:21:05;;;;;;;1.70;1.40;;;14.70;75.90;;;;;;5070517;28;20444;-86
2023/10/20 07:23:33;;;;;;;1.50;1.03;;;14.70;76.20;;;;;;5070251;28;22911;-92
2023/10/20 07:26:02;;;;;;;1.67;1.17;;;14.70;76.10;;;;;;5070774;28;20881;-88
2023/10/20 07:28:30;;;;;;;2.10;1.60;;;14.70;76.40;;;;;;5069933;28;20997;-89
2023/10/20 07:30:58;;;;;;;1.57;1.30;;;14.70;76.30;;;;;;5070562;28;20469;-88
2023/10/20 07:33:29;;;;;;;1.50;1.40;;;14.70;76.30;;;;;;5070110;28;20430;-86
2023/10/20 07:35:59;;;;;;;2.17;1.57;;;14.70;76.50;;;;;;5069685;28;21040;-87
2023/10/20 07:38:28;;;;;;;2.03;1.30;;;14.70;76.70;;;;;;5069610;28;20442;-87
2023/10/20 07:40:56;;;;;;;1.80;1.43;;;14.70;76.80;;;;;;5069759;28;20480;-87
2023/10/20 07:43:24;;;;;;;2.20;1.90;;;14.70;76.80;;;;;;5070983;28;20434;-87
2023/10/20 07:45:53;;;;;;;1.50;1.30;;;14.70;76.90;;;;;;5072123;28;20472;-90
2023/10/20 07:48:21;;;;;;;1.60;1.17;;;14.70;77.10;;;;;;5072009;28;20495;-88
2023/10/20 07:50:52;;;;;;;1.47;1.17;;;14.70;76.30;;;;;;5073417;28;20464;-86
2023/10/20 07:53:20;;;;;;;1.73;1.50;;;14.70;76.10;;;;;;5070681;28;20422;-88
2023/10/20 07:55:49;;;;;;;1.50;1.20;;;14.70;76.50;;;;;;5070704;28;20456;-90
2023/10/20 07:58:17;;;;;;;1.57;1.27;;;14.70;76.60;;;;;;5070674;28;20417;-89
2023/10/20 08:00:46;;;;;;;2.37;1.47;;;14.70;76.40;;;;;;5070731;28;20441;-86
2023/10/20 08:03:14;;;;;;;1.40;1.30;;;14.70;76.30;;;;;;5071172;28;20418;-87
2023/10/20 08:05:42;;;;;;;1.50;1.00;;;14.70;76.50;;;;;;5070871;28;20552;-89
2023/10/20 08:08:13;;;;;;;2.20;1.33;;;14.70;76.40;;;;;;5070939;28;20901;-89
2023/10/20 08:10:42;;;;;;;1.70;1.47;;;14.70;76.30;;;;;;5070459;28;20509;-86
2023/10/20 08:13:10;;;;;;;2.43;1.33;;;14.70;78.00;;;;;;5070914;28;20464;-90
2023/10/20 08:15:40;;;;;;;2.00;1.43;;;14.70;76.60;;;;;;5070313;28;20452;-90
2023/10/20 08:18:10;;;;;;;2.20;1.40;;;14.70;76.70;;;;;;5070736;28;20899;-92
2023/10/20 08:20:39;;;;;;;1.43;1.13;;;14.70;77.80;;;;;;5070871;28;20652;-93
2023/10/20 08:23:09;;;;;;;1.73;1.30;;;14.70;76.40;;;;;;5072535;28;20423;-92
2023/10/20 08:25:40;;;;;;;1.63;1.00;;;14.70;76.80;;;;;;5069578;28;20614;-84
2023/10/20 08:28:09;;;;;;;1.90;1.67;;;14.70;76.60;;;;;;5070341;28;20901;-86
2023/10/20 08:30:37;;;;;;;2.13;1.70;;;14.70;76.20;;;;;;5069246;28;20508;-85
2023/10/20 08:33:06;;;;;;;1.50;1.20;;;14.70;76.70;;;;;;5069995;28;20935;-90
2023/10/20 08:35:35;;;;;;;1.67;1.10;;;14.70;76.70;;;;;;5069158;28;20550;-84
2023/10/20 08:38:04;;;;;;;1.33;1.20;;;14.80;76.50;;;;;;5069935;28;20948;-87
2023/10/20 08:40:36;;;;;;;2.33;1.10;;;14.70;76.50;;;;;;5052586;28;20560;-86
2023/10/20 08:43:26;;;;;;;1.70;1.27;;;14.70;76.50;;;;;;5069784;28;20414;-87
2023/10/20 08:45:55;;;;;;;2.23;1.50;;;14.70;77.30;;;;;;5069969;28;20939;-87
2023/10/20 08:48:24;;;;;;;2.00;1.47;;;14.70;76.30;;;;;;5069857;28;20939;-87
2023/10/20 08:50:54;;;;;;;1.63;1.50;;;14.70;76.80;;;;;;5070006;28;20437;-91
2023/10/20 08:53:23;;;;;;;1.80;1.20;;;14.70;77.60;;;;;;5069613;28;20903;-89
2023/10/20 08:55:51;;;;;;;1.70;1.13;;;14.70;76.50;;;;;;5070393;28;20485;-87
2023/10/20 08:58:22;;;;;;;1.80;1.33;;;14.80;76.50;;;;;;5053426;28;20441;-89
2023/10/20 09:00:55;;;;;;;2.40;1.13;;;14.70;76.50;;;;;;5071125;28;20414;-84
2023/10/20 09:03:27;;;;;;;2.43;1.13;;;14.70;76.30;;;;;;5073466;28;20524;-89
2023/10/20 09:06:05;;;;;;;1.67;1.47;;;14.70;76.30;;;;;;5071587;28;20548;-93
2023/10/20 09:08:33;;;;;;;1.70;1.40;;;14.80;77.70;;;;;;5069585;28;20611;-91
2023/10/20 09:11:02;;;;;;;1.80;1.37;;;14.70;76.30;;;;;;5069955;28;20813;-88
2023/10/20 09:13:34;;;;;;;1.63;1.30;;;14.70;76.20;;;;;;5069858;28;20452;-88
2023/10/20 09:16:07;;;;;;;1.43;0.80;;;14.70;76.60;;;;;;5070147;28;20489;-87
2023/10/20 09:18:43;;;;;;;1.80;1.00;;;14.80;76.70;;;;;;5071775;28;20469;-89
2023/10/20 09:21:14;;;;;;;1.40;0.97;;;14.80;76.60;;;;;;5073598;28;20436;-88
2023/10/20 09:23:55;;;;;;;1.50;1.00;;;14.80;76.70;;;;;;5072619;28;20537;-91
2023/10/20 09:26:24;;;;;;;2.00;1.57;;;14.70;76.90;;;;;;5073107;28;20466;-89
2023/10/20 09:28:54;;;;;;;1.57;1.13;;;14.80;77.30;;;;;;5072224;28;20555;-90
2023/10/20 09:31:26;;;;;;;2.00;1.30;;;14.80;76.60;;;;;;5073262;28;20962;-88
2023/10/20 09:33:56;;;;;;;1.80;0.90;;;14.70;76.80;;;;;;5072514;28;20465;-86
2023/10/20 09:36:24;;;;;;;1.77;1.30;;;14.80;76.80;;;;;;5072378;28;20982;-90
2023/10/20 09:38:54;;;;;;;1.60;1.20;;;14.80;76.80;;;;;;5072001;28;20991;-88
2023/10/20 09:41:24;;;;;;;1.53;1.23;;;14.80;77.30;;;;;;5072856;28;20923;-92
2023/10/20 09:43:53;;;;;;;1.80;1.43;;;14.80;77.10;;;;;;5072323;28;20467;-86
2023/10/20 09:46:40;;;;;;;1.90;1.20;;;14.80;78.30;;;;;;5072826;28;20453;-90
2023/10/20 09:49:15;;;;;;;1.60;1.20;;;14.80;77.20;;;;;;5072592;28;20988;-89
2023/10/20 09:51:48;;;;;;;1.60;1.23;;;14.80;76.60;;;;;;5073334;28;20457;-89
2023/10/20 09:54:21;;;;;;;1.70;0.93;;;14.80;76.80;;;;;;5071858;28;20496;-91
2023/10/20 09:56:50;;;;;;;1.70;1.47;;;14.80;76.50;;;;;;5072660;28;20437;-86
2023/10/20 09:59:20;;;;;;;1.80;1.33;;;14.80;76.90;;;;;;5072346;28;20465;-89
2023/10/20 10:01:50;;;;;;;1.73;1.23;;;14.80;77.80;;;;;;5073081;28;20434;-88
2023/10/20 10:04:27;;;;;;;1.53;1.10;;;14.80;76.60;;;;;;5072519;28;20463;-87
2023/10/20 10:06:56;;;;;;;2.00;1.70;;;14.70;76.30;;;;;;5073249;28;20469;-91
2023/10/20 10:09:36;;;;;;;3.33;1.50;;;14.80;76.50;;;;;;5078029;28;20501;-90
2023/10/20 10:12:10;;;;;;;2.00;1.40;;;14.80;77.30;;;;;;5072714;28;20453;-90
2023/10/20 10:14:38;;;;;;;2.80;1.17;;;14.80;76.70;;;;;;5072239;28;20472;-87
2023/10/20 10:17:10;;;;;;;1.90;1.30;;;14.80;76.40;;;;;;5072751;28;20720;-87
2023/10/20 10:19:50;;;;;;;1.87;1.33;;;14.80;76.30;;;;;;5072252;28;20485;-87
2023/10/20 10:22:23;;;;;;;2.50;1.10;;;14.80;76.80;;;;;;5072579;28;20450;-88
2023/10/20 10:24:54;;;;;;;2.03;1.30;;;14.80;76.70;;;;;;5071750;28;20476;-91
2023/10/20 10:27:26;;;;;;;1.37;0.93;;;14.80;76.40;;;;;;5072415;28;20421;-89
2023/10/20 10:29:58;;;;;;;1.40;1.10;;;14.80;76.50;;;;;;5071880;28;20464;-90
2023/10/20 10:32:32;;;;;;;1.50;0.97;;;14.80;76.60;;;;;;5072543;28;20464;-89
2023/10/20 12:54:52;;;;;;;2.53;1.90;;;15.00;82.00;;;;;;5067521;28;20471;-87
2023/10/20 12:57:20;;;;;;;2.10;1.90;;;;;;;;;;5077364;28;20422;-89
2023/10/20 12:59:49;;;;;;;3.57;2.10;;;15.10;82.50;;;;;;5072656;28;20476;-88
2023/10/20 13:02:17;;;;;;;3.53;2.53;;;15.10;84.20;;;;;;5062612;28;20425;-88
2023/10/20 13:04:45;;;;;;;3.00;2.50;;;15.10;85.00;;;;;;5078920;28;20849;-87
2023/10/20 13:07:13;;;;;;;2.47;2.10;;;15.20;84.50;;;;;;5076914;28;20433;-88
2023/10/20 13:09:42;;;;;;;3.13;1.70;;;15.20;84.30;;;;;;5076849;28;20928;-90
2023/10/20 13:12:11;;;;;;;3.40;2.00;;;15.10;83.20;;;;;;5077777;28;20437;-88
2023/10/20 13:14:40;;;;;;;3.93;2.17;;;15.10;85.00;;;;;;5079923;28;20758;-88
2023/10/20 13:17:08;;;;;;;2.77;2.33;;;15.10;83.90;;;;;;5082418;28;20430;-88
2023/10/20 13:19:37;;;;;;;2.90;2.03;;;15.10;84.80;;;;;;5081859;28;20551;-90
2023/10/20 13:22:05;;;;;;;1.77;1.67;;;15.10;83.10;;;;;;5082573;28;20431;-85
2023/10/20 13:24:34;;;;;;;3.93;2.27;;;15.10;82.90;;;;;;5080678;28;20515;-89
2023/10/20 13:27:03;;;;;;;2.17;1.93;;;15.10;83.00;;;;;;5074809;28;20442;-88
2023/10/20 13:29:33;;;;;;;2.17;1.47;;;15.10;85.50;;;;;;5062393;28;20469;-87
2023/10/20 13:32:01;;;;;;;3.23;2.20;;;15.10;84.30;;;;;;5061135;28;20533;-87
2023/10/20 13:34:30;;;;;;;2.23;1.83;;;15.10;83.40;;;;;;5061970;28;20474;-87
2023/10/20 13:36:58;;;;;;;2.60;1.47;;;15.10;81.80;;;;;;5045176;28;20444;-89
2023/10/20 13:39:27;;;;;;;2.60;2.00;;;15.10;82.50;;;;;;5061200;28;20527;-89
2023/10/20 13:41:58;;;;;;;2.60;2.23;;;15.10;82.00;;;;;;5061536;28;20428;-87
2023/10/20 13:44:27;;;;;;;2.53;1.60;;;15.10;82.10;;;;;;5062180;28;20462;-88
2023/10/20 13:46:57;;;;;;;2.77;1.63;;;15.10;82.40;;;;;;5061914;28;20422;-88
2023/10/20 13:49:25;;;;;;;2.57;1.53;;;15.10;82.70;;;;;;5060264;28;20448;-88
2023/10/20 13:51:53;;;;;;;5.10;1.40;;;15.10;82.60;;;;;;5061000;28;20420;-89
2023/10/20 13:54:21;;;;;;;2.20;1.60;;;15.10;81.80;;;;;;5059816;28;20505;-87
2023/10/20 13:56:50;;;;;;;1.77;1.60;;;15.10;82.00;;;;;;5061097;28;20433;-89
2023/10/20 13:59:18;;;;;;;2.07;1.67;;;15.10;81.90;;;;;;5061678;28;20459;-89
2023/10/20 14:01:46;;;;;;;4.03;1.93;;;15.10;81.30;;;;;;5060498;28;20840;-89
2023/10/20 14:04:18;;;;;;;1.40;1.23;;;15.10;82.20;;;;;;5058594;28;20709;-89
2023/10/20 14:06:46;;;;;;;1.60;1.10;;;15.10;81.80;;;;;;5060956;28;20447;-85
2023/10/20 14:09:15;;;;;;;2.33;1.43;;;15.10;82.40;;;;;;5060647;28;20467;-87
2023/10/20 14:11:43;;;;;;;2.70;1.50;;;15.10;81.40;;;;;;5061789;28;20422;-87
2023/10/20 14:14:11;;;;;;;2.53;1.50;;;15.10;81.60;;;;;;5059867;28;20467;-88
2023/10/20 14:16:40;;;;;;;2.00;1.10;;;15.10;81.60;;;;;;5044719;28;20442;-90
2023/10/20 14:19:08;;;;;;;1.70;1.30;;;15.10;80.90;;;;;;5060094;28;20502;-90
2023/10/20 14:21:38;;;;;;;1.77;1.20;;;15.10;80.80;;;;;;5062996;28;20419;-88
2023/10/20 14:24:07;;;;;;;2.10;1.20;;;15.10;81.00;;;;;;5062632;28;20459;-91
2023/10/20 14:26:36;;;;;;;1.80;1.53;;;15.10;81.00;;;;;;5045829;28;20431;-87
2023/10/20 14:29:04;;;;;;;1.97;1.33;;;15.10;80.80;;;;;;5053203;28;20470;-86
2023/10/20 14:31:32;;;;;;;1.73;1.30;;;15.10;81.20;;;;;;5054169;28;20445;-88
2023/10/20 14:34:01;;;;;;;1.83;1.23;;;15.10;81.00;;;;;;5054035;28;20463;-89
2023/10/20 14:36:32;;;;;;;2.70;1.30;;;15.10;80.50;;;;;;5036083;28;20454;-90
2023/10/20 14:39:02;;;;;;;1.20;1.00;;;15.10;80.60;;;;;;5054702;28;20847;-87
2023/10/20 14:41:30;;;;;;;2.70;1.57;;;15.10;80.90;;;;;;5072048;28;20532;-88
2023/10/20 14:43:59;;;;;;;1.93;1.03;;;15.10;80.90;;;;;;5071813;28;20552;-84
2023/10/20 14:46:27;;;;;;;1.67;0.90;;;15.10;81.70;;;;;;5061297;28;20504;-83
2023/10/20 14:48:55;;;;;;;3.87;1.30;;;15.10;81.40;;;;;;5073205;28;20555;-86
2023/10/20 14:51:23;;;;;;;1.90;1.10;;;15.10;80.70;;;;;;5056903;28;20427;-87
2023/10/20 14:53:52;;;;;;;1.57;1.20;;;15.10;81.40;;;;;;5053206;28;20470;-87
2023/10/20 14:56:22;;;;;;;1.83;1.30;;;15.10;82.20;;;;;;5054955;28;20514;-86
2023/10/20 14:58:50;;;;;;;2.20;1.17;;;15.10;81.20;;;;;;5054651;28;20464;-88
2023/10/20 16:00:32;;;;;;;2.20;0.90;;;15.20;83.10;;;;;;5090625;28;20843;-87
2023/10/20 16:03:01;;;;;;;1.80;0.97;;;15.30;84.70;;;;;;5091432;28;20495;-85
2023/10/20 16:05:29;;;;;;;1.30;0.90;;;15.30;84.30;;;;;;5090339;28;20471;-86
2023/10/20 16:07:58;;;;;;;1.70;1.20;;;15.30;84.20;;;;;;5091741;28;20412;-87
2023/10/20 16:10:26;;;;;;;1.33;0.90;;;15.30;84.50;;;;;;5091120;28;20479;-87
2023/10/20 16:12:55;;;;;;;1.53;1.17;;;15.30;84.00;;;;;;5092011;28;20436;-86
2023/10/20 16:43:53;;;;;;;2.80;1.50;;;15.40;83.80;;;;;;5094289;28;20440;-86
2023/10/20 16:50:45;;;;;;;2.87;1.90;;;15.40;91.10;;;;;;5067878;28;20643;-86
2023/10/20 16:53:13;;;;;;;1.70;1.33;;;15.30;90.90;;;;;;5092610;28;20544;-83
2023/10/20 16:55:42;;;;;;;2.27;1.60;;;15.30;90.40;;;;;;5093576;28;20476;-88
2023/10/20 16:58:10;;;;;;;2.63;1.57;;;15.30;89.90;;;;;;5094211;28;20433;-85
2023/10/20 17:00:39;;;;;;;3.03;1.13;;;15.30;89.20;;;;;;5093254;28;20464;-85
2023/10/20 17:03:08;;;;;;;2.70;1.67;;;15.30;88.50;;;;;;5094125;28;20748;-86
2023/10/20 17:05:37;;;;;;;2.03;1.70;;;15.30;88.50;;;;;;5093185;28;20475;-87
2023/10/20 17:08:06;;;;;;;2.27;1.57;;;15.30;88.50;;;;;;5094555;28;20819;-84
2023/10/20 17:10:38;;;;;;;1.90;1.20;;;15.30;88.40;;;;;;5094056;28;20828;-87
2023/10/20 17:13:07;;;;;;;1.90;1.63;;;15.30;88.40;;;;;;5094918;28;20413;-86
2023/10/20 17:15:35;;;;;;;1.80;1.17;;;15.30;87.90;;;;;;5096448;28;20471;-87